Ocoee 3 Observed Data For Previous 48 Hours

Caption
Day and Hour Reservoir Elevation (behind dam)* Tailwater Elevation (below dam)* Average Hourly Discharge*
6/20/2018 2 AM EDT 1,432.84 1,118.58 1,036
6/20/2018 3 AM EDT 1,432.88 1,118.50 1,034
6/20/2018 4 AM EDT 1,432.92 1,118.56 1,035
6/20/2018 5 AM EDT 1,432.95 1,118.57 1,036
6/20/2018 6 AM EDT 1,432.97 1,118.57 1,036
6/20/2018 7 AM EDT 1,432.99 1,118.60 1,036
6/20/2018 8 AM EDT 1,433.00 1,118.51 1,035
6/20/2018 9 AM EDT 1,433.00 1,118.55 1,036
6/20/2018 10 AM EDT 1,432.96 1,118.59 1,035
6/20/2018 11 AM EDT 1,432.92 1,118.60 1,039
6/20/2018 12 PM EDT 1,432.83 1,118.52 1,036
6/20/2018 1 PM EDT 1,432.74 1,118.47 1,039
6/20/2018 2 PM EDT 1,432.64 1,118.55 1,038
6/20/2018 3 PM EDT 1,432.54 1,119.29 1,058
6/20/2018 4 PM EDT 1,432.37 1,119.29 1,355
6/20/2018 5 PM EDT 1,432.20 1,119.34 1,349
6/20/2018 6 PM EDT 1,432.02 1,119.28 1,356
6/20/2018 7 PM EDT 1,431.84 1,119.34 1,352
6/20/2018 8 PM EDT 1,431.65 1,119.29 1,355
6/20/2018 9 PM EDT 1,431.59 1,119.35 1,353
6/20/2018 10 PM EDT 1,431.71 1,119.38 1,355
6/20/2018 11 PM EDT 1,431.89 1,119.23 1,352
6/21/2018 12 AM EDT 1,432.18 1,118.48 1,044
6/21/2018 1 AM EDT 1,432.47 1,118.54 1,034
6/21/2018 2 AM EDT 1,432.98 1,114.04 11
6/21/2018 3 AM EDT 1,433.39 1,114.07 0
6/21/2018 4 AM EDT 1,433.67 1,114.08 0
6/21/2018 5 AM EDT 1,433.84 1,118.14 67
6/21/2018 6 AM EDT 1,433.79 1,118.53 1,034
6/21/2018 7 AM EDT 1,433.71 1,118.55 1,033
6/21/2018 8 AM EDT 1,433.62 1,118.49 1,033
6/21/2018 9 AM EDT 1,433.53 1,119.35 1,054
6/21/2018 10 AM EDT 1,433.39 1,119.01 1,301
6/21/2018 11 AM EDT 1,433.26 1,119.10 1,214
6/21/2018 12 PM EDT 1,433.13 1,119.08 1,217
6/21/2018 1 PM EDT 1,433.00 1,119.06 1,215
6/21/2018 2 PM EDT 1,432.86 1,119.22 1,223
6/21/2018 3 PM EDT 1,432.73 1,119.11 1,217
6/21/2018 4 PM EDT 1,432.59 1,119.10 1,222
6/21/2018 5 PM EDT 1,432.49 1,118.45 1,037
6/21/2018 6 PM EDT 1,432.40 1,118.44 1,036
6/21/2018 7 PM EDT 1,432.30 1,118.58 1,040
6/21/2018 8 PM EDT 1,432.20 1,118.52 1,042
6/21/2018 9 PM EDT 1,432.10 1,118.62 1,040
6/21/2018 10 PM EDT 1,432.09 1,118.57 1,040
6/21/2018 11 PM EDT 1,432.30 1,118.61 1,038
6/22/2018 12 AM EDT 1,432.55 1,118.55 1,040
6/22/2018 1 AM EDT 1,432.81 1,118.56 1,036

Elevations are in feet above sea level. Discharges are in cubic feet per second and are reported at the end of the hour.